sensor_id;sensor_type;location;lat;lon;timestamp;temperature;humidity
24614;DHT22;12760;46.296;25.290;2022-07-24T00:00:28;25.30;85.30
24614;DHT22;12760;46.296;25.290;2022-07-24T00:02:54;25.30;85.50
24614;DHT22;12760;46.296;25.290;2022-07-24T00:05:20;25.20;85.60
24614;DHT22;12760;46.296;25.290;2022-07-24T00:07:46;25.10;86.10
24614;DHT22;12760;46.296;25.290;2022-07-24T00:10:11;25.10;86.10
24614;DHT22;12760;46.296;25.290;2022-07-24T00:12:38;25.10;86.00
24614;DHT22;12760;46.296;25.290;2022-07-24T00:15:04;24.90;86.40
24614;DHT22;12760;46.296;25.290;2022-07-24T00:17:30;24.90;86.40
24614;DHT22;12760;46.296;25.290;2022-07-24T00:19:56;24.90;86.50
24614;DHT22;12760;46.296;25.290;2022-07-24T00:22:22;24.90;86.60
24614;DHT22;12760;46.296;25.290;2022-07-24T00:24:49;24.80;86.90
24614;DHT22;12760;46.296;25.290;2022-07-24T00:27:15;24.80;87.10
24614;DHT22;12760;46.296;25.290;2022-07-24T00:29:41;24.70;87.10
24614;DHT22;12760;46.296;25.290;2022-07-24T00:32:06;24.70;86.90
24614;DHT22;12760;46.296;25.290;2022-07-24T00:34:32;24.70;87.00
24614;DHT22;12760;46.296;25.290;2022-07-24T00:36:58;24.80;86.90
24614;DHT22;12760;46.296;25.290;2022-07-24T00:39:24;24.80;86.60
24614;DHT22;12760;46.296;25.290;2022-07-24T00:41:49;24.80;86.60
24614;DHT22;12760;46.296;25.290;2022-07-24T00:44:19;24.80;86.60
24614;DHT22;12760;46.296;25.290;2022-07-24T00:46:46;24.70;86.90
24614;DHT22;12760;46.296;25.290;2022-07-24T00:49:15;24.50;87.00
24614;DHT22;12760;46.296;25.290;2022-07-24T00:51:43;24.50;87.30
24614;DHT22;12760;46.296;25.290;2022-07-24T00:54:11;24.30;87.50
24614;DHT22;12760;46.296;25.290;2022-07-24T00:56:37;24.10;88.00
24614;DHT22;12760;46.296;25.290;2022-07-24T00:59:03;24.10;88.40
24614;DHT22;12760;46.296;25.290;2022-07-24T01:01:30;24.10;88.40
24614;DHT22;12760;46.296;25.290;2022-07-24T01:03:56;24.10;88.40
24614;DHT22;12760;46.296;25.290;2022-07-24T01:06:23;23.90;88.80
24614;DHT22;12760;46.296;25.290;2022-07-24T01:08:50;24.00;88.50
24614;DHT22;12760;46.296;25.290;2022-07-24T01:11:18;24.00;88.80
24614;DHT22;12760;46.296;25.290;2022-07-24T01:13:44;24.00;88.70
24614;DHT22;12760;46.296;25.290;2022-07-24T01:16:11;24.00;88.80
24614;DHT22;12760;46.296;25.290;2022-07-24T01:18:37;23.80;89.00
24614;DHT22;12760;46.296;25.290;2022-07-24T01:21:04;23.90;89.00
24614;DHT22;12760;46.296;25.290;2022-07-24T01:23:30;23.90;88.70
24614;DHT22;12760;46.296;25.290;2022-07-24T01:25:57;23.90;88.80
24614;DHT22;12760;46.296;25.290;2022-07-24T01:28:22;24.00;88.80
24614;DHT22;12760;46.296;25.290;2022-07-24T01:30:48;23.90;89.00
24614;DHT22;12760;46.296;25.290;2022-07-24T01:33:14;23.80;89.20
24614;DHT22;12760;46.296;25.290;2022-07-24T01:35:41;23.80;90.00
24614;DHT22;12760;46.296;25.290;2022-07-24T01:38:08;23.70;89.40
24614;DHT22;12760;46.296;25.290;2022-07-24T01:40:34;23.70;89.60
24614;DHT22;12760;46.296;25.290;2022-07-24T01:43:00;23.70;89.30
24614;DHT22;12760;46.296;25.290;2022-07-24T01:45:26;23.90;89.20
24614;DHT22;12760;46.296;25.290;2022-07-24T01:47:52;23.90;89.10
24614;DHT22;12760;46.296;25.290;2022-07-24T01:50:18;24.00;89.00
24614;DHT22;12760;46.296;25.290;2022-07-24T01:52:44;23.90;88.90
24614;DHT22;12760;46.296;25.290;2022-07-24T01:55:09;24.00;88.80
24614;DHT22;12760;46.296;25.290;2022-07-24T01:57:36;23.90;89.30
24614;DHT22;12760;46.296;25.290;2022-07-24T02:00:04;23.40;90.20
24614;DHT22;12760;46.296;25.290;2022-07-24T02:02:31;22.90;91.10
24614;DHT22;12760;46.296;25.290;2022-07-24T02:04:57;23.00;90.90
24614;DHT22;12760;46.296;25.290;2022-07-24T02:07:22;23.10;90.90
24614;DHT22;12760;46.296;25.290;2022-07-24T02:09:48;22.80;91.20
24614;DHT22;12760;46.296;25.290;2022-07-24T02:12:14;23.00;90.90
24614;DHT22;12760;46.296;25.290;2022-07-24T02:14:39;23.20;90.50
24614;DHT22;12760;46.296;25.290;2022-07-24T02:17:05;23.40;90.30
24614;DHT22;12760;46.296;25.290;2022-07-24T02:19:31;23.40;90.30
24614;DHT22;12760;46.296;25.290;2022-07-24T02:21:57;23.50;90.40
24614;DHT22;12760;46.296;25.290;2022-07-24T02:24:22;23.40;90.40
24614;DHT22;12760;46.296;25.290;2022-07-24T02:26:49;23.20;90.80
24614;DHT22;12760;46.296;25.290;2022-07-24T02:29:15;22.90;91.10
24614;DHT22;12760;46.296;25.290;2022-07-24T02:31:41;22.90;91.00
24614;DHT22;12760;46.296;25.290;2022-07-24T02:34:07;23.20;90.80
24614;DHT22;12760;46.296;25.290;2022-07-24T02:36:32;23.20;90.80
24614;DHT22;12760;46.296;25.290;2022-07-24T02:38:58;23.20;90.60
24614;DHT22;12760;46.296;25.290;2022-07-24T02:41:24;23.00;91.00
24614;DHT22;12760;46.296;25.290;2022-07-24T02:43:50;22.90;91.00
24614;DHT22;12760;46.296;25.290;2022-07-24T02:46:15;23.00;91.10
24614;DHT22;12760;46.296;25.290;2022-07-24T02:48:41;22.80;91.40
24614;DHT22;12760;46.296;25.290;2022-07-24T02:51:07;22.90;91.10
24614;DHT22;12760;46.296;25.290;2022-07-24T02:53:33;22.90;91.20
24614;DHT22;12760;46.296;25.290;2022-07-24T02:55:59;22.70;91.30
24614;DHT22;12760;46.296;25.290;2022-07-24T02:58:24;22.70;91.60
24614;DHT22;12760;46.296;25.290;2022-07-24T03:00:50;22.70;91.40
24614;DHT22;12760;46.296;25.290;2022-07-24T03:03:16;22.90;91.30
24614;DHT22;12760;46.296;25.290;2022-07-24T03:05:42;23.00;91.00
24614;DHT22;12760;46.296;25.290;2022-07-24T03:08:07;23.10;91.00
24614;DHT22;12760;46.296;25.290;2022-07-24T03:10:33;22.90;91.40
24614;DHT22;12760;46.296;25.290;2022-07-24T03:12:59;22.70;91.50
24614;DHT22;12760;46.296;25.290;2022-07-24T03:15:25;22.80;91.50
24614;DHT22;12760;46.296;25.290;2022-07-24T03:17:52;22.80;91.60
24614;DHT22;12760;46.296;25.290;2022-07-24T03:20:19;22.70;91.70
24614;DHT22;12760;46.296;25.290;2022-07-24T03:22:46;22.80;91.70
24614;DHT22;12760;46.296;25.290;2022-07-24T03:25:12;22.80;91.70
24614;DHT22;12760;46.296;25.290;2022-07-24T03:27:38;22.80;91.80
24614;DHT22;12760;46.296;25.290;2022-07-24T03:30:05;22.70;91.70
24614;DHT22;12760;46.296;25.290;2022-07-24T03:32:31;22.90;91.40
24614;DHT22;12760;46.296;25.290;2022-07-24T03:34:57;23.00;91.20
24614;DHT22;12760;46.296;25.290;2022-07-24T03:37:22;22.90;91.40
24614;DHT22;12760;46.296;25.290;2022-07-24T03:39:48;22.90;91.10
24614;DHT22;12760;46.296;25.290;2022-07-24T03:42:14;23.00;91.00
24614;DHT22;12760;46.296;25.290;2022-07-24T03:44:40;23.00;91.00
24614;DHT22;12760;46.296;25.290;2022-07-24T03:47:06;23.00;91.00
24614;DHT22;12760;46.296;25.290;2022-07-24T03:49:32;22.80;91.10
24614;DHT22;12760;46.296;25.290;2022-07-24T03:51:58;22.80;91.10
24614;DHT22;12760;46.296;25.290;2022-07-24T03:54:23;22.90;91.10
24614;DHT22;12760;46.296;25.290;2022-07-24T03:56:50;22.90;91.10
24614;DHT22;12760;46.296;25.290;2022-07-24T03:59:16;22.80;91.30
24614;DHT22;12760;46.296;25.290;2022-07-24T04:01:42;22.70;91.40
24614;DHT22;12760;46.296;25.290;2022-07-24T04:04:07;22.50;91.50
24614;DHT22;12760;46.296;25.290;2022-07-24T04:06:34;22.60;91.50
24614;DHT22;12760;46.296;25.290;2022-07-24T04:09:01;22.60;91.60
24614;DHT22;12760;46.296;25.290;2022-07-24T04:11:27;22.80;91.40
24614;DHT22;12760;46.296;25.290;2022-07-24T04:13:52;22.70;91.50
24614;DHT22;12760;46.296;25.290;2022-07-24T04:16:19;22.80;91.40
24614;DHT22;12760;46.296;25.290;2022-07-24T04:18:44;23.00;91.10
24614;DHT22;12760;46.296;25.290;2022-07-24T04:21:10;22.90;91.30
24614;DHT22;12760;46.296;25.290;2022-07-24T04:23:36;23.00;91.10
24614;DHT22;12760;46.296;25.290;2022-07-24T04:26:03;23.10;91.10
24614;DHT22;12760;46.296;25.290;2022-07-24T04:28:29;23.00;91.10
24614;DHT22;12760;46.296;25.290;2022-07-24T04:30:55;23.00;91.10
24614;DHT22;12760;46.296;25.290;2022-07-24T04:33:21;23.00;91.10
24614;DHT22;12760;46.296;25.290;2022-07-24T04:35:46;23.00;91.10
24614;DHT22;12760;46.296;25.290;2022-07-24T04:38:12;23.00;91.10
24614;DHT22;12760;46.296;25.290;2022-07-24T04:40:38;23.10;91.10
24614;DHT22;12760;46.296;25.290;2022-07-24T04:43:04;23.20;91.10
24614;DHT22;12760;46.296;25.290;2022-07-24T04:45:30;23.10;91.10
24614;DHT22;12760;46.296;25.290;2022-07-24T04:47:55;23.20;91.20
24614;DHT22;12760;46.296;25.290;2022-07-24T04:50:21;23.30;91.10
24614;DHT22;12760;46.296;25.290;2022-07-24T04:52:47;23.20;91.00
24614;DHT22;12760;46.296;25.290;2022-07-24T04:55:13;23.20;91.20
24614;DHT22;12760;46.296;25.290;2022-07-24T04:57:39;23.20;91.30
24614;DHT22;12760;46.296;25.290;2022-07-24T05:00:09;23.10;91.40
24614;DHT22;12760;46.296;25.290;2022-07-24T05:02:35;23.00;91.50
24614;DHT22;12760;46.296;25.290;2022-07-24T05:05:01;23.00;91.60
24614;DHT22;12760;46.296;25.290;2022-07-24T05:07:27;23.20;91.40
24614;DHT22;12760;46.296;25.290;2022-07-24T05:09:53;23.40;91.20
24614;DHT22;12760;46.296;25.290;2022-07-24T05:12:18;23.50;91.10
24614;DHT22;12760;46.296;25.290;2022-07-24T05:14:44;23.60;91.00
24614;DHT22;12760;46.296;25.290;2022-07-24T05:17:10;23.70;90.80
24614;DHT22;12760;46.296;25.290;2022-07-24T05:19:36;23.70;90.70
24614;DHT22;12760;46.296;25.290;2022-07-24T05:22:02;23.70;91.00
24614;DHT22;12760;46.296;25.290;2022-07-24T05:24:27;23.80;90.70
24614;DHT22;12760;46.296;25.290;2022-07-24T05:26:53;23.90;90.80
24614;DHT22;12760;46.296;25.290;2022-07-24T05:29:19;23.90;90.80
24614;DHT22;12760;46.296;25.290;2022-07-24T05:31:44;24.00;90.80
24614;DHT22;12760;46.296;25.290;2022-07-24T05:34:12;24.10;90.60
24614;DHT22;12760;46.296;25.290;2022-07-24T05:36:38;24.20;90.50
24614;DHT22;12760;46.296;25.290;2022-07-24T05:39:04;24.30;90.00
24614;DHT22;12760;46.296;25.290;2022-07-24T05:41:30;24.50;89.60
24614;DHT22;12760;46.296;25.290;2022-07-24T05:43:56;24.70;89.90
24614;DHT22;12760;46.296;25.290;2022-07-24T05:46:22;24.80;89.00
24614;DHT22;12760;46.296;25.290;2022-07-24T05:48:47;25.00;88.40
24614;DHT22;12760;46.296;25.290;2022-07-24T05:51:13;25.10;88.50
24614;DHT22;12760;46.296;25.290;2022-07-24T05:53:39;25.30;88.80
24614;DHT22;12760;46.296;25.290;2022-07-24T05:56:05;25.50;87.60
24614;DHT22;12760;46.296;25.290;2022-07-24T05:58:31;25.70;87.40
24614;DHT22;12760;46.296;25.290;2022-07-24T06:00:58;25.80;86.70
24614;DHT22;12760;46.296;25.290;2022-07-24T06:03:24;26.00;86.40
24614;DHT22;12760;46.296;25.290;2022-07-24T06:05:49;26.20;86.00
24614;DHT22;12760;46.296;25.290;2022-07-24T06:08:15;26.30;85.80
24614;DHT22;12760;46.296;25.290;2022-07-24T06:10:41;26.60;85.30
24614;DHT22;12760;46.296;25.290;2022-07-24T06:13:07;26.80;84.60
24614;DHT22;12760;46.296;25.290;2022-07-24T06:15:33;26.90;84.80
24614;DHT22;12760;46.296;25.290;2022-07-24T06:17:58;27.20;84.50
24614;DHT22;12760;46.296;25.290;2022-07-24T06:20:24;27.40;84.50
24614;DHT22;12760;46.296;25.290;2022-07-24T06:22:50;27.60;83.90
24614;DHT22;12760;46.296;25.290;2022-07-24T06:25:17;27.80;83.80
24614;DHT22;12760;46.296;25.290;2022-07-24T06:27:45;27.90;83.10
24614;DHT22;12760;46.296;25.290;2022-07-24T06:30:16;28.00;82.90
24614;DHT22;12760;46.296;25.290;2022-07-24T06:32:42;28.10;83.60
24614;DHT22;12760;46.296;25.290;2022-07-24T06:35:09;28.30;83.30
24614;DHT22;12760;46.296;25.290;2022-07-24T06:37:35;28.40;81.10
24614;DHT22;12760;46.296;25.290;2022-07-24T06:40:01;28.50;80.60
24614;DHT22;12760;46.296;25.290;2022-07-24T06:42:27;28.70;81.00
24614;DHT22;12760;46.296;25.290;2022-07-24T06:44:53;28.80;80.10
24614;DHT22;12760;46.296;25.290;2022-07-24T06:47:19;28.70;79.20
24614;DHT22;12760;46.296;25.290;2022-07-24T06:49:45;28.90;80.50
24614;DHT22;12760;46.296;25.290;2022-07-24T06:52:11;29.10;79.70
24614;DHT22;12760;46.296;25.290;2022-07-24T06:54:37;29.30;79.40
24614;DHT22;12760;46.296;25.290;2022-07-24T06:57:02;29.40;78.60
24614;DHT22;12760;46.296;25.290;2022-07-24T06:59:29;29.50;78.60
24614;DHT22;12760;46.296;25.290;2022-07-24T07:01:54;29.70;78.00
24614;DHT22;12760;46.296;25.290;2022-07-24T07:04:21;29.70;77.10
24614;DHT22;12760;46.296;25.290;2022-07-24T07:06:47;29.80;76.60
24614;DHT22;12760;46.296;25.290;2022-07-24T07:09:13;29.90;77.40
24614;DHT22;12760;46.296;25.290;2022-07-24T07:11:39;30.00;77.10
24614;DHT22;12760;46.296;25.290;2022-07-24T07:14:04;30.10;77.10
24614;DHT22;12760;46.296;25.290;2022-07-24T07:16:30;30.30;77.00
24614;DHT22;12760;46.296;25.290;2022-07-24T07:18:56;30.30;76.40
24614;DHT22;12760;46.296;25.290;2022-07-24T07:21:22;30.40;76.80
24614;DHT22;12760;46.296;25.290;2022-07-24T07:23:47;30.40;77.10
24614;DHT22;12760;46.296;25.290;2022-07-24T07:26:13;30.50;75.90
24614;DHT22;12760;46.296;25.290;2022-07-24T07:28:39;30.70;76.90
24614;DHT22;12760;46.296;25.290;2022-07-24T07:31:04;30.80;75.10
24614;DHT22;12760;46.296;25.290;2022-07-24T07:33:30;30.80;75.10
24614;DHT22;12760;46.296;25.290;2022-07-24T07:35:56;31.00;74.00
24614;DHT22;12760;46.296;25.290;2022-07-24T07:38:21;31.10;73.80
24614;DHT22;12760;46.296;25.290;2022-07-24T07:40:47;31.20;73.40
24614;DHT22;12760;46.296;25.290;2022-07-24T07:43:13;31.30;73.50
24614;DHT22;12760;46.296;25.290;2022-07-24T07:45:39;31.20;72.90
24614;DHT22;12760;46.296;25.290;2022-07-24T07:48:04;31.30;72.70
24614;DHT22;12760;46.296;25.290;2022-07-24T07:50:30;31.20;73.30
24614;DHT22;12760;46.296;25.290;2022-07-24T07:52:56;31.30;73.80
24614;DHT22;12760;46.296;25.290;2022-07-24T07:55:22;31.50;73.70
24614;DHT22;12760;46.296;25.290;2022-07-24T07:57:48;31.50;73.20
24614;DHT22;12760;46.296;25.290;2022-07-24T08:00:15;31.60;72.90
24614;DHT22;12760;46.296;25.290;2022-07-24T08:02:41;31.60;73.40
24614;DHT22;12760;46.296;25.290;2022-07-24T08:05:07;31.70;73.50
24614;DHT22;12760;46.296;25.290;2022-07-24T08:07:33;31.80;73.20
24614;DHT22;12760;46.296;25.290;2022-07-24T08:09:59;31.80;73.30
24614;DHT22;12760;46.296;25.290;2022-07-24T08:12:26;31.70;74.00
24614;DHT22;12760;46.296;25.290;2022-07-24T08:14:51;31.80;74.20
24614;DHT22;12760;46.296;25.290;2022-07-24T08:17:17;31.90;74.20
24614;DHT22;12760;46.296;25.290;2022-07-24T08:19:43;32.00;73.90
24614;DHT22;12760;46.296;25.290;2022-07-24T08:22:11;31.90;74.00
24614;DHT22;12760;46.296;25.290;2022-07-24T08:24:36;32.00;74.30
24614;DHT22;12760;46.296;25.290;2022-07-24T08:27:03;32.20;74.20
24614;DHT22;12760;46.296;25.290;2022-07-24T08:29:28;32.30;73.50
24614;DHT22;12760;46.296;25.290;2022-07-24T08:31:54;32.50;73.10
24614;DHT22;12760;46.296;25.290;2022-07-24T08:34:20;32.60;73.20
24614;DHT22;12760;46.296;25.290;2022-07-24T08:36:45;32.70;73.00
24614;DHT22;12760;46.296;25.290;2022-07-24T08:39:12;32.90;73.40
24614;DHT22;12760;46.296;25.290;2022-07-24T08:41:39;33.10;72.20
24614;DHT22;12760;46.296;25.290;2022-07-24T08:44:05;33.10;72.10
24614;DHT22;12760;46.296;25.290;2022-07-24T08:46:32;32.90;72.30
24614;DHT22;12760;46.296;25.290;2022-07-24T08:48:58;33.00;72.60
24614;DHT22;12760;46.296;25.290;2022-07-24T08:51:43;33.10;72.20
24614;DHT22;12760;46.296;25.290;2022-07-24T08:54:10;33.30;71.10
24614;DHT22;12760;46.296;25.290;2022-07-24T08:56:40;33.30;71.10
24614;DHT22;12760;46.296;25.290;2022-07-24T08:59:18;33.30;71.50
24614;DHT22;12760;46.296;25.290;2022-07-24T09:01:44;33.30;71.30
24614;DHT22;12760;46.296;25.290;2022-07-24T09:04:39;33.30;70.80
24614;DHT22;12760;46.296;25.290;2022-07-24T09:07:16;33.40;71.00
24614;DHT22;12760;46.296;25.290;2022-07-24T09:09:44;33.60;70.10
24614;DHT22;12760;46.296;25.290;2022-07-24T09:12:22;33.60;70.80
24614;DHT22;12760;46.296;25.290;2022-07-24T09:14:48;33.50;70.20
24614;DHT22;12760;46.296;25.290;2022-07-24T09:17:19;33.60;71.00
24614;DHT22;12760;46.296;25.290;2022-07-24T09:19:51;33.70;70.80
24614;DHT22;12760;46.296;25.290;2022-07-24T09:22:38;33.70;70.00
24614;DHT22;12760;46.296;25.290;2022-07-24T09:27:59;33.90;68.90
24614;DHT22;12760;46.296;25.290;2022-07-24T09:30:34;34.00;70.30
24614;DHT22;12760;46.296;25.290;2022-07-24T09:33:21;34.00;69.30
24614;DHT22;12760;46.296;25.290;2022-07-24T09:35:51;34.20;69.20
24614;DHT22;12760;46.296;25.290;2022-07-24T09:38:20;34.40;69.00
24614;DHT22;12760;46.296;25.290;2022-07-24T09:40:51;34.40;69.00
24614;DHT22;12760;46.296;25.290;2022-07-24T09:46:02;34.60;67.70
24614;DHT22;12760;46.296;25.290;2022-07-24T09:48:31;34.50;68.00
24614;DHT22;12760;46.296;25.290;2022-07-24T09:51:04;34.70;67.70
24614;DHT22;12760;46.296;25.290;2022-07-24T09:53:32;34.70;67.80
24614;DHT22;12760;46.296;25.290;2022-07-24T09:56:00;34.70;68.00
24614;DHT22;12760;46.296;25.290;2022-07-24T09:58:26;34.80;67.20
24614;DHT22;12760;46.296;25.290;2022-07-24T10:00:57;34.90;67.80
24614;DHT22;12760;46.296;25.290;2022-07-24T10:03:28;34.90;67.10
24614;DHT22;12760;46.296;25.290;2022-07-24T10:06:00;35.00;67.20
24614;DHT22;12760;46.296;25.290;2022-07-24T10:08:27;35.10;67.10
24614;DHT22;12760;46.296;25.290;2022-07-24T10:10:54;35.10;66.80
24614;DHT22;12760;46.296;25.290;2022-07-24T10:13:20;35.10;66.40
24614;DHT22;12760;46.296;25.290;2022-07-24T10:16:15;35.10;66.70
24614;DHT22;12760;46.296;25.290;2022-07-24T10:18:53;35.20;66.90
24614;DHT22;12760;46.296;25.290;2022-07-24T10:21:29;34.90;65.20
24614;DHT22;12760;46.296;25.290;2022-07-24T10:26:40;34.60;66.50
24614;DHT22;12760;46.296;25.290;2022-07-24T10:31:35;34.50;66.90
24614;DHT22;12760;46.296;25.290;2022-07-24T10:37:07;34.70;67.60
24614;DHT22;12760;46.296;25.290;2022-07-24T10:42:15;35.00;66.60
24614;DHT22;12760;46.296;25.290;2022-07-24T10:44:42;35.00;66.30
24614;DHT22;12760;46.296;25.290;2022-07-24T10:47:11;34.90;66.10
24614;DHT22;12760;46.296;25.290;2022-07-24T10:49:44;34.90;66.60
24614;DHT22;12760;46.296;25.290;2022-07-24T10:52:28;34.80;66.00
24614;DHT22;12760;46.296;25.290;2022-07-24T10:55:34;34.70;66.60
24614;DHT22;12760;46.296;25.290;2022-07-24T10:58:14;34.90;66.30
24614;DHT22;12760;46.296;25.290;2022-07-24T11:00:45;34.90;65.70
24614;DHT22;12760;46.296;25.290;2022-07-24T11:03:19;34.80;66.40
24614;DHT22;12760;46.296;25.290;2022-07-24T11:06:07;34.70;66.30
24614;DHT22;12760;46.296;25.290;2022-07-24T11:08:49;34.60;66.40
24614;DHT22;12760;46.296;25.290;2022-07-24T11:11:22;34.50;66.50
24614;DHT22;12760;46.296;25.290;2022-07-24T11:13:51;34.40;66.00
24614;DHT22;12760;46.296;25.290;2022-07-24T11:16:18;34.30;66.00
24614;DHT22;12760;46.296;25.290;2022-07-24T11:21:40;34.00;67.50
24614;DHT22;12760;46.296;25.290;2022-07-24T11:24:17;34.00;68.10
24614;DHT22;12760;46.296;25.290;2022-07-24T11:26:58;34.00;67.30
24614;DHT22;12760;46.296;25.290;2022-07-24T11:29:33;33.90;68.80
24614;DHT22;12760;46.296;25.290;2022-07-24T11:32:12;33.70;68.50
24614;DHT22;12760;46.296;25.290;2022-07-24T11:34:47;33.60;69.00
24614;DHT22;12760;46.296;25.290;2022-07-24T11:37:13;33.50;69.30
24614;DHT22;12760;46.296;25.290;2022-07-24T11:39:42;33.50;69.30
24614;DHT22;12760;46.296;25.290;2022-07-24T11:42:14;33.60;69.70
24614;DHT22;12760;46.296;25.290;2022-07-24T11:44:43;33.60;70.00
24614;DHT22;12760;46.296;25.290;2022-07-24T11:49:54;33.70;70.10
24614;DHT22;12760;46.296;25.290;2022-07-24T11:52:54;33.80;70.60
24614;DHT22;12760;46.296;25.290;2022-07-24T11:55:15;33.90;70.30
24614;DHT22;12760;46.296;25.290;2022-07-24T11:57:43;33.90;69.90
24614;DHT22;12760;46.296;25.290;2022-07-24T12:00:19;33.90;69.90
24614;DHT22;12760;46.296;25.290;2022-07-24T12:02:51;33.70;69.80
24614;DHT22;12760;46.296;25.290;2022-07-24T12:05:28;33.70;70.50
24614;DHT22;12760;46.296;25.290;2022-07-24T12:07:55;33.70;71.00
24614;DHT22;12760;46.296;25.290;2022-07-24T12:10:22;33.70;70.70
24614;DHT22;12760;46.296;25.290;2022-07-24T12:12:52;33.80;70.70
24614;DHT22;12760;46.296;25.290;2022-07-24T12:15:19;33.80;70.20
24614;DHT22;12760;46.296;25.290;2022-07-24T12:18:02;33.80;70.30
24614;DHT22;12760;46.296;25.290;2022-07-24T12:20:31;33.90;70.70
24614;DHT22;12760;46.296;25.290;2022-07-24T12:22:59;34.00;70.30
24614;DHT22;12760;46.296;25.290;2022-07-24T12:25:25;33.90;68.30
24614;DHT22;12760;46.296;25.290;2022-07-24T12:28:03;33.80;69.00
24614;DHT22;12760;46.296;25.290;2022-07-24T12:30:32;33.70;68.70
24614;DHT22;12760;46.296;25.290;2022-07-24T12:33:05;33.80;68.90
24614;DHT22;12760;46.296;25.290;2022-07-24T12:38:32;33.80;68.40
24614;DHT22;12760;46.296;25.290;2022-07-24T12:41:03;33.90;69.40
24614;DHT22;12760;46.296;25.290;2022-07-24T12:43:30;33.90;67.40
24614;DHT22;12760;46.296;25.290;2022-07-24T12:46:06;34.10;67.00
24614;DHT22;12760;46.296;25.290;2022-07-24T12:48:32;34.10;66.50
24614;DHT22;12760;46.296;25.290;2022-07-24T12:53:32;34.30;66.90
24614;DHT22;12760;46.296;25.290;2022-07-24T12:56:11;34.40;67.50
24614;DHT22;12760;46.296;25.290;2022-07-24T12:59:09;34.50;66.10
24614;DHT22;12760;46.296;25.290;2022-07-24T13:01:51;34.50;67.00
24614;DHT22;12760;46.296;25.290;2022-07-24T13:04:18;34.40;66.90
24614;DHT22;12760;46.296;25.290;2022-07-24T13:06:47;34.40;66.90
24614;DHT22;12760;46.296;25.290;2022-07-24T13:09:15;34.40;67.10
24614;DHT22;12760;46.296;25.290;2022-07-24T13:11:43;34.30;65.70
24614;DHT22;12760;46.296;25.290;2022-07-24T13:14:10;34.30;66.00
24614;DHT22;12760;46.296;25.290;2022-07-24T13:16:39;34.40;65.70
24614;DHT22;12760;46.296;25.290;2022-07-24T13:19:06;34.40;64.80
24614;DHT22;12760;46.296;25.290;2022-07-24T13:21:32;34.50;64.80
24614;DHT22;12760;46.296;25.290;2022-07-24T13:23:58;34.50;64.50
24614;DHT22;12760;46.296;25.290;2022-07-24T13:26:23;34.60;64.80
24614;DHT22;12760;46.296;25.290;2022-07-24T13:28:50;34.60;63.90
24614;DHT22;12760;46.296;25.290;2022-07-24T13:31:16;34.70;63.50
24614;DHT22;12760;46.296;25.290;2022-07-24T13:33:48;34.70;63.80
24614;DHT22;12760;46.296;25.290;2022-07-24T13:36:15;34.70;62.50
24614;DHT22;12760;46.296;25.290;2022-07-24T13:38:41;34.80;62.60
24614;DHT22;12760;46.296;25.290;2022-07-24T13:41:06;34.70;62.10
24614;DHT22;12760;46.296;25.290;2022-07-24T13:43:32;34.70;61.90
24614;DHT22;12760;46.296;25.290;2022-07-24T13:45:58;34.70;62.60
24614;DHT22;12760;46.296;25.290;2022-07-24T13:48:23;34.80;62.40
24614;DHT22;12760;46.296;25.290;2022-07-24T13:50:50;34.80;62.60
24614;DHT22;12760;46.296;25.290;2022-07-24T13:53:15;34.60;62.10
24614;DHT22;12760;46.296;25.290;2022-07-24T13:55:41;34.60;62.80
24614;DHT22;12760;46.296;25.290;2022-07-24T13:58:07;34.40;62.50
24614;DHT22;12760;46.296;25.290;2022-07-24T14:00:33;34.40;63.60
24614;DHT22;12760;46.296;25.290;2022-07-24T14:02:59;34.40;63.50
24614;DHT22;12760;46.296;25.290;2022-07-24T14:05:25;34.40;63.00
24614;DHT22;12760;46.296;25.290;2022-07-24T14:07:52;34.40;63.90
24614;DHT22;12760;46.296;25.290;2022-07-24T14:10:19;34.20;62.90
24614;DHT22;12760;46.296;25.290;2022-07-24T14:12:44;34.20;64.10
24614;DHT22;12760;46.296;25.290;2022-07-24T14:15:11;34.20;64.10
24614;DHT22;12760;46.296;25.290;2022-07-24T14:17:40;34.20;63.80
24614;DHT22;12760;46.296;25.290;2022-07-24T14:20:08;34.30;64.90
24614;DHT22;12760;46.296;25.290;2022-07-24T14:22:34;34.30;64.80
24614;DHT22;12760;46.296;25.290;2022-07-24T14:25:00;34.20;64.70
24614;DHT22;12760;46.296;25.290;2022-07-24T14:27:27;34.10;63.80
24614;DHT22;12760;46.296;25.290;2022-07-24T14:29:53;33.90;64.00
24614;DHT22;12760;46.296;25.290;2022-07-24T14:32:19;34.00;64.70
24614;DHT22;12760;46.296;25.290;2022-07-24T14:34:45;33.80;63.80
24614;DHT22;12760;46.296;25.290;2022-07-24T14:37:11;33.80;64.60
24614;DHT22;12760;46.296;25.290;2022-07-24T14:39:37;33.70;65.10
24614;DHT22;12760;46.296;25.290;2022-07-24T14:42:03;33.60;65.20
24614;DHT22;12760;46.296;25.290;2022-07-24T14:44:28;33.60;65.60
24614;DHT22;12760;46.296;25.290;2022-07-24T14:46:54;33.60;66.10
24614;DHT22;12760;46.296;25.290;2022-07-24T14:49:20;33.60;65.80
24614;DHT22;12760;46.296;25.290;2022-07-24T14:51:46;33.60;65.80
24614;DHT22;12760;46.296;25.290;2022-07-24T14:54:12;33.50;65.70
24614;DHT22;12760;46.296;25.290;2022-07-24T14:56:38;33.50;66.50
24614;DHT22;12760;46.296;25.290;2022-07-24T14:59:05;33.50;66.20
24614;DHT22;12760;46.296;25.290;2022-07-24T15:01:32;33.50;66.90
24614;DHT22;12760;46.296;25.290;2022-07-24T15:03:57;33.60;66.90
24614;DHT22;12760;46.296;25.290;2022-07-24T15:06:23;33.70;67.00
24614;DHT22;12760;46.296;25.290;2022-07-24T15:08:49;33.80;66.80
24614;DHT22;12760;46.296;25.290;2022-07-24T15:11:15;33.90;66.40
24614;DHT22;12760;46.296;25.290;2022-07-24T15:13:40;33.90;67.10
24614;DHT22;12760;46.296;25.290;2022-07-24T15:16:08;33.90;67.00
24614;DHT22;12760;46.296;25.290;2022-07-24T15:18:34;34.00;67.60
24614;DHT22;12760;46.296;25.290;2022-07-24T15:21:00;33.90;66.40
24614;DHT22;12760;46.296;25.290;2022-07-24T15:23:26;33.80;65.80
24614;DHT22;12760;46.296;25.290;2022-07-24T15:25:52;33.70;65.80
24614;DHT22;12760;46.296;25.290;2022-07-24T15:28:19;33.70;65.90
24614;DHT22;12760;46.296;25.290;2022-07-24T15:30:45;33.60;66.60
24614;DHT22;12760;46.296;25.290;2022-07-24T15:33:11;33.60;66.80
24614;DHT22;12760;46.296;25.290;2022-07-24T15:35:37;33.60;66.90
24614;DHT22;12760;46.296;25.290;2022-07-24T15:38:03;33.60;67.00
24614;DHT22;12760;46.296;25.290;2022-07-24T15:40:29;33.60;66.10
24614;DHT22;12760;46.296;25.290;2022-07-24T15:42:57;33.50;65.70
24614;DHT22;12760;46.296;25.290;2022-07-24T15:45:23;33.50;64.50